sensor_id;sensor_type;location;lat;lon;timestamp;temperature;humidity
18502;DHT22;68437;52.236;5.710;2023-04-01T00:01:40;9.70;99.90
18502;DHT22;68437;52.236;5.710;2023-04-01T00:04:07;9.70;99.90
18502;DHT22;68437;52.236;5.710;2023-04-01T00:06:34;9.70;99.90
18502;DHT22;68437;52.236;5.710;2023-04-01T00:09:02;9.70;99.90
18502;DHT22;68437;52.236;5.710;2023-04-01T00:11:30;9.70;99.90
18502;DHT22;68437;52.236;5.710;2023-04-01T00:13:56;9.80;99.90
18502;DHT22;68437;52.236;5.710;2023-04-01T00:16:23;9.70;99.90
18502;DHT22;68437;52.236;5.710;2023-04-01T00:18:51;9.80;99.90
18502;DHT22;68437;52.236;5.710;2023-04-01T00:21:18;9.80;99.90
18502;DHT22;68437;52.236;5.710;2023-04-01T00:23:45;9.80;99.90
18502;DHT22;68437;52.236;5.710;2023-04-01T00:26:14;9.70;99.90
18502;DHT22;68437;52.236;5.710;2023-04-01T00:28:44;9.80;99.90
18502;DHT22;68437;52.236;5.710;2023-04-01T00:31:12;9.80;99.90
18502;DHT22;68437;52.236;5.710;2023-04-01T00:33:39;9.80;99.90
18502;DHT22;68437;52.236;5.710;2023-04-01T00:36:08;9.70;99.90
18502;DHT22;68437;52.236;5.710;2023-04-01T00:38:36;9.70;99.90
18502;DHT22;68437;52.236;5.710;2023-04-01T00:41:04;9.70;99.90
18502;DHT22;68437;52.236;5.710;2023-04-01T00:43:33;9.80;99.90
18502;DHT22;68437;52.236;5.710;2023-04-01T00:46:00;9.80;99.90
18502;DHT22;68437;52.236;5.710;2023-04-01T00:48:28;9.80;99.90
18502;DHT22;68437;52.236;5.710;2023-04-01T00:50:59;9.80;99.90
18502;DHT22;68437;52.236;5.710;2023-04-01T00:53:28;9.80;99.90
18502;DHT22;68437;52.236;5.710;2023-04-01T00:56:00;9.80;99.90
18502;DHT22;68437;52.236;5.710;2023-04-01T00:58:30;9.80;99.90
18502;DHT22;68437;52.236;5.710;2023-04-01T01:00:59;9.70;99.90
18502;DHT22;68437;52.236;5.710;2023-04-01T01:03:27;9.70;99.90
18502;DHT22;68437;52.236;5.710;2023-04-01T01:06:11;9.80;99.90
18502;DHT22;68437;52.236;5.710;2023-04-01T01:09:06;9.70;99.90
18502;DHT22;68437;52.236;5.710;2023-04-01T01:11:42;9.70;99.90
18502;DHT22;68437;52.236;5.710;2023-04-01T01:14:23;9.70;99.90
18502;DHT22;68437;52.236;5.710;2023-04-01T01:16:56;9.70;99.90
18502;DHT22;68437;52.236;5.710;2023-04-01T01:19:45;9.70;99.90
18502;DHT22;68437;52.236;5.710;2023-04-01T01:22:36;9.70;99.90
18502;DHT22;68437;52.236;5.710;2023-04-01T01:25:18;9.70;99.90
18502;DHT22;68437;52.236;5.710;2023-04-01T01:27:49;9.70;99.90
18502;DHT22;68437;52.236;5.710;2023-04-01T01:30:39;9.70;99.90
18502;DHT22;68437;52.236;5.710;2023-04-01T01:33:40;9.70;99.90
18502;DHT22;68437;52.236;5.710;2023-04-01T01:36:12;9.70;99.90
18502;DHT22;68437;52.236;5.710;2023-04-01T01:38:40;9.70;99.90
18502;DHT22;68437;52.236;5.710;2023-04-01T01:41:08;9.60;99.90
18502;DHT22;68437;52.236;5.710;2023-04-01T01:43:39;9.60;99.90
18502;DHT22;68437;52.236;5.710;2023-04-01T01:46:09;9.60;99.90
18502;DHT22;68437;52.236;5.710;2023-04-01T01:48:37;9.70;99.90
18502;DHT22;68437;52.236;5.710;2023-04-01T01:51:06;9.50;99.90
18502;DHT22;68437;52.236;5.710;2023-04-01T01:53:34;9.60;99.90
18502;DHT22;68437;52.236;5.710;2023-04-01T01:56:02;9.60;99.90
18502;DHT22;68437;52.236;5.710;2023-04-01T01:58:31;9.60;99.90
18502;DHT22;68437;52.236;5.710;2023-04-01T02:01:03;9.60;99.90
18502;DHT22;68437;52.236;5.710;2023-04-01T02:03:34;9.60;99.90
18502;DHT22;68437;52.236;5.710;2023-04-01T02:06:06;9.60;99.90
18502;DHT22;68437;52.236;5.710;2023-04-01T02:08:37;9.60;99.90
18502;DHT22;68437;52.236;5.710;2023-04-01T02:11:08;9.60;99.90
18502;DHT22;68437;52.236;5.710;2023-04-01T02:13:39;9.50;99.90
18502;DHT22;68437;52.236;5.710;2023-04-01T02:16:13;9.50;99.90
18502;DHT22;68437;52.236;5.710;2023-04-01T02:18:42;9.60;99.90
18502;DHT22;68437;52.236;5.710;2023-04-01T02:21:10;9.60;99.90
18502;DHT22;68437;52.236;5.710;2023-04-01T02:23:40;9.60;99.90
18502;DHT22;68437;52.236;5.710;2023-04-01T02:26:09;9.60;99.90
18502;DHT22;68437;52.236;5.710;2023-04-01T02:28:38;9.60;99.90
18502;DHT22;68437;52.236;5.710;2023-04-01T02:31:08;9.60;99.90
18502;DHT22;68437;52.236;5.710;2023-04-01T02:33:37;9.60;99.90
18502;DHT22;68437;52.236;5.710;2023-04-01T02:36:04;9.50;99.90
18502;DHT22;68437;52.236;5.710;2023-04-01T02:38:31;9.50;99.90
18502;DHT22;68437;52.236;5.710;2023-04-01T02:41:03;9.50;99.90
18502;DHT22;68437;52.236;5.710;2023-04-01T02:43:30;9.40;99.90
18502;DHT22;68437;52.236;5.710;2023-04-01T02:45:57;9.40;99.90
18502;DHT22;68437;52.236;5.710;2023-04-01T02:48:24;9.40;99.90
18502;DHT22;68437;52.236;5.710;2023-04-01T02:50:51;9.40;99.90
18502;DHT22;68437;52.236;5.710;2023-04-01T02:53:18;9.40;99.90
18502;DHT22;68437;52.236;5.710;2023-04-01T02:55:44;9.40;99.90
18502;DHT22;68437;52.236;5.710;2023-04-01T02:58:13;9.40;99.90
18502;DHT22;68437;52.236;5.710;2023-04-01T03:00:39;9.40;99.90
18502;DHT22;68437;52.236;5.710;2023-04-01T03:03:06;9.40;99.90
18502;DHT22;68437;52.236;5.710;2023-04-01T03:05:33;9.40;99.90
18502;DHT22;68437;52.236;5.710;2023-04-01T03:08:00;9.40;99.90
18502;DHT22;68437;52.236;5.710;2023-04-01T03:10:27;9.30;99.90
18502;DHT22;68437;52.236;5.710;2023-04-01T03:12:54;9.30;99.90
18502;DHT22;68437;52.236;5.710;2023-04-01T03:15:22;9.30;99.90
18502;DHT22;68437;52.236;5.710;2023-04-01T03:17:49;9.30;99.90
18502;DHT22;68437;52.236;5.710;2023-04-01T03:20:17;9.30;99.90
18502;DHT22;68437;52.236;5.710;2023-04-01T03:22:43;9.30;99.90
18502;DHT22;68437;52.236;5.710;2023-04-01T03:25:11;9.30;99.90
18502;DHT22;68437;52.236;5.710;2023-04-01T03:27:38;9.30;99.90
18502;DHT22;68437;52.236;5.710;2023-04-01T03:30:06;9.30;99.90
18502;DHT22;68437;52.236;5.710;2023-04-01T03:32:34;9.30;99.90
18502;DHT22;68437;52.236;5.710;2023-04-01T03:35:01;9.30;99.90
18502;DHT22;68437;52.236;5.710;2023-04-01T03:37:28;9.30;99.90
18502;DHT22;68437;52.236;5.710;2023-04-01T03:39:55;9.30;99.90
18502;DHT22;68437;52.236;5.710;2023-04-01T03:42:21;9.30;99.90
18502;DHT22;68437;52.236;5.710;2023-04-01T03:44:48;9.20;99.90
18502;DHT22;68437;52.236;5.710;2023-04-01T03:47:15;9.20;99.90
18502;DHT22;68437;52.236;5.710;2023-04-01T03:49:43;9.20;99.90
18502;DHT22;68437;52.236;5.710;2023-04-01T03:52:10;9.20;99.90
18502;DHT22;68437;52.236;5.710;2023-04-01T03:54:37;9.20;99.90
18502;DHT22;68437;52.236;5.710;2023-04-01T03:57:05;9.20;99.90
18502;DHT22;68437;52.236;5.710;2023-04-01T03:59:32;9.20;99.90
18502;DHT22;68437;52.236;5.710;2023-04-01T04:01:59;9.20;99.90
18502;DHT22;68437;52.236;5.710;2023-04-01T04:04:26;9.30;99.90
18502;DHT22;68437;52.236;5.710;2023-04-01T04:06:54;9.20;99.90
18502;DHT22;68437;52.236;5.710;2023-04-01T04:09:21;9.20;99.90
18502;DHT22;68437;52.236;5.710;2023-04-01T04:11:48;9.20;99.90
18502;DHT22;68437;52.236;5.710;2023-04-01T04:14:16;9.30;99.90
18502;DHT22;68437;52.236;5.710;2023-04-01T04:16:43;9.20;99.90
18502;DHT22;68437;52.236;5.710;2023-04-01T04:19:10;9.20;99.90
18502;DHT22;68437;52.236;5.710;2023-04-01T04:21:37;9.30;99.90
18502;DHT22;68437;52.236;5.710;2023-04-01T04:24:06;9.30;99.90
18502;DHT22;68437;52.236;5.710;2023-04-01T04:26:32;9.30;99.90
18502;DHT22;68437;52.236;5.710;2023-04-01T04:29:00;9.40;99.90
18502;DHT22;68437;52.236;5.710;2023-04-01T04:31:27;9.40;99.90
18502;DHT22;68437;52.236;5.710;2023-04-01T04:33:54;9.40;99.90
18502;DHT22;68437;52.236;5.710;2023-04-01T04:36:21;9.40;99.90
18502;DHT22;68437;52.236;5.710;2023-04-01T04:38:48;9.30;99.90
18502;DHT22;68437;52.236;5.710;2023-04-01T04:41:17;9.40;99.90
18502;DHT22;68437;52.236;5.710;2023-04-01T04:43:49;9.40;99.90
18502;DHT22;68437;52.236;5.710;2023-04-01T04:46:17;9.40;99.90
18502;DHT22;68437;52.236;5.710;2023-04-01T04:48:44;9.40;99.90
18502;DHT22;68437;52.236;5.710;2023-04-01T04:51:13;9.30;99.90
18502;DHT22;68437;52.236;5.710;2023-04-01T04:53:41;9.40;99.90
18502;DHT22;68437;52.236;5.710;2023-04-01T04:56:08;9.40;99.90
18502;DHT22;68437;52.236;5.710;2023-04-01T04:58:36;9.40;99.90
18502;DHT22;68437;52.236;5.710;2023-04-01T05:01:07;9.40;99.90
18502;DHT22;68437;52.236;5.710;2023-04-01T05:03:34;9.30;99.90
18502;DHT22;68437;52.236;5.710;2023-04-01T05:06:01;9.30;99.90
18502;DHT22;68437;52.236;5.710;2023-04-01T05:08:28;9.40;99.90
18502;DHT22;68437;52.236;5.710;2023-04-01T05:10:55;9.30;99.90
18502;DHT22;68437;52.236;5.710;2023-04-01T05:13:22;9.30;99.90
18502;DHT22;68437;52.236;5.710;2023-04-01T05:15:50;9.30;99.90
18502;DHT22;68437;52.236;5.710;2023-04-01T05:18:17;9.30;99.90
18502;DHT22;68437;52.236;5.710;2023-04-01T05:20:48;9.30;99.90
18502;DHT22;68437;52.236;5.710;2023-04-01T05:23:15;9.30;99.90
18502;DHT22;68437;52.236;5.710;2023-04-01T05:25:42;9.30;99.90
18502;DHT22;68437;52.236;5.710;2023-04-01T05:28:10;9.40;99.90
18502;DHT22;68437;52.236;5.710;2023-04-01T05:30:39;9.40;99.90
18502;DHT22;68437;52.236;5.710;2023-04-01T05:33:08;9.40;99.90
18502;DHT22;68437;52.236;5.710;2023-04-01T05:35:35;9.40;99.90
18502;DHT22;68437;52.236;5.710;2023-04-01T05:38:02;9.40;99.90
18502;DHT22;68437;52.236;5.710;2023-04-01T05:40:29;9.40;99.90
18502;DHT22;68437;52.236;5.710;2023-04-01T05:42:55;9.40;99.90
18502;DHT22;68437;52.236;5.710;2023-04-01T05:45:22;9.40;99.90
18502;DHT22;68437;52.236;5.710;2023-04-01T05:47:49;9.40;99.90
18502;DHT22;68437;52.236;5.710;2023-04-01T05:50:18;9.40;99.90
18502;DHT22;68437;52.236;5.710;2023-04-01T05:52:44;9.40;99.90
18502;DHT22;68437;52.236;5.710;2023-04-01T05:55:11;9.30;99.90
18502;DHT22;68437;52.236;5.710;2023-04-01T05:57:38;9.40;99.90
18502;DHT22;68437;52.236;5.710;2023-04-01T06:00:06;9.40;99.90
18502;DHT22;68437;52.236;5.710;2023-04-01T06:02:33;9.40;99.90
18502;DHT22;68437;52.236;5.710;2023-04-01T06:05:03;9.50;99.90
18502;DHT22;68437;52.236;5.710;2023-04-01T06:07:39;9.40;99.90
18502;DHT22;68437;52.236;5.710;2023-04-01T06:10:11;9.40;99.90
18502;DHT22;68437;52.236;5.710;2023-04-01T06:12:48;9.40;99.90
18502;DHT22;68437;52.236;5.710;2023-04-01T06:15:23;9.40;99.90
18502;DHT22;68437;52.236;5.710;2023-04-01T06:20:43;9.50;99.90
18502;DHT22;68437;52.236;5.710;2023-04-01T06:23:30;9.60;99.90
18502;DHT22;68437;52.236;5.710;2023-04-01T06:26:11;9.50;99.90
18502;DHT22;68437;52.236;5.710;2023-04-01T06:28:52;9.50;99.90
18502;DHT22;68437;52.236;5.710;2023-04-01T06:31:35;9.50;99.90
18502;DHT22;68437;52.236;5.710;2023-04-01T06:37:15;9.60;99.90
18502;DHT22;68437;52.236;5.710;2023-04-01T06:40:03;9.60;99.90
18502;DHT22;68437;52.236;5.710;2023-04-01T06:42:41;9.60;99.90
18502;DHT22;68437;52.236;5.710;2023-04-01T06:45:22;9.70;99.90
18502;DHT22;68437;52.236;5.710;2023-04-01T06:48:02;9.70;99.90
18502;DHT22;68437;52.236;5.710;2023-04-01T06:50:43;9.70;99.90
18502;DHT22;68437;52.236;5.710;2023-04-01T06:53:19;9.80;99.90
18502;DHT22;68437;52.236;5.710;2023-04-01T06:55:52;9.90;99.90
18502;DHT22;68437;52.236;5.710;2023-04-01T06:58:22;9.90;99.90
18502;DHT22;68437;52.236;5.710;2023-04-01T07:00:52;9.90;99.90
18502;DHT22;68437;52.236;5.710;2023-04-01T07:03:23;10.00;99.90
18502;DHT22;68437;52.236;5.710;2023-04-01T07:05:57;10.00;99.90
18502;DHT22;68437;52.236;5.710;2023-04-01T07:08:27;10.10;99.90
18502;DHT22;68437;52.236;5.710;2023-04-01T07:11:00;10.10;99.90
18502;DHT22;68437;52.236;5.710;2023-04-01T07:13:31;10.20;99.90
18502;DHT22;68437;52.236;5.710;2023-04-01T07:16:07;10.10;99.90
18502;DHT22;68437;52.236;5.710;2023-04-01T07:18:38;10.20;99.90
18502;DHT22;68437;52.236;5.710;2023-04-01T07:21:12;10.20;99.90
18502;DHT22;68437;52.236;5.710;2023-04-01T07:23:44;10.20;99.90
18502;DHT22;68437;52.236;5.710;2023-04-01T07:26:16;10.20;99.90
18502;DHT22;68437;52.236;5.710;2023-04-01T07:28:43;10.20;99.90
18502;DHT22;68437;52.236;5.710;2023-04-01T07:31:18;10.20;99.90
18502;DHT22;68437;52.236;5.710;2023-04-01T07:33:54;10.30;99.90
18502;DHT22;68437;52.236;5.710;2023-04-01T07:36:28;10.30;99.90
18502;DHT22;68437;52.236;5.710;2023-04-01T07:39:06;10.30;99.90
18502;DHT22;68437;52.236;5.710;2023-04-01T07:41:45;10.40;99.90
18502;DHT22;68437;52.236;5.710;2023-04-01T07:44:18;10.40;99.90
18502;DHT22;68437;52.236;5.710;2023-04-01T07:46:55;10.30;99.90
18502;DHT22;68437;52.236;5.710;2023-04-01T07:49:29;10.30;99.90
18502;DHT22;68437;52.236;5.710;2023-04-01T07:52:07;10.20;99.90
18502;DHT22;68437;52.236;5.710;2023-04-01T07:54:41;10.20;99.90
18502;DHT22;68437;52.236;5.710;2023-04-01T07:57:17;10.20;99.90
18502;DHT22;68437;52.236;5.710;2023-04-01T07:59:53;10.30;99.90
18502;DHT22;68437;52.236;5.710;2023-04-01T08:02:31;10.30;99.90
18502;DHT22;68437;52.236;5.710;2023-04-01T08:05:06;10.20;99.90
18502;DHT22;68437;52.236;5.710;2023-04-01T08:07:40;10.30;99.90
18502;DHT22;68437;52.236;5.710;2023-04-01T08:10:15;10.30;99.90
18502;DHT22;68437;52.236;5.710;2023-04-01T08:12:54;10.30;99.90
18502;DHT22;68437;52.236;5.710;2023-04-01T08:15:26;10.30;99.90
18502;DHT22;68437;52.236;5.710;2023-04-01T08:18:01;10.30;99.90
18502;DHT22;68437;52.236;5.710;2023-04-01T08:20:34;10.30;99.90
18502;DHT22;68437;52.236;5.710;2023-04-01T08:23:07;10.20;99.90
18502;DHT22;68437;52.236;5.710;2023-04-01T08:25:39;10.20;99.90
18502;DHT22;68437;52.236;5.710;2023-04-01T08:28:15;10.20;99.90
18502;DHT22;68437;52.236;5.710;2023-04-01T08:30:46;10.20;99.90
18502;DHT22;68437;52.236;5.710;2023-04-01T08:33:17;10.20;99.90
18502;DHT22;68437;52.236;5.710;2023-04-01T08:35:49;10.20;99.90
18502;DHT22;68437;52.236;5.710;2023-04-01T08:38:21;10.10;99.90
18502;DHT22;68437;52.236;5.710;2023-04-01T08:40:59;10.10;99.90
18502;DHT22;68437;52.236;5.710;2023-04-01T08:43:46;10.10;99.90
18502;DHT22;68437;52.236;5.710;2023-04-01T08:46:32;10.10;99.90
18502;DHT22;68437;52.236;5.710;2023-04-01T08:49:16;10.20;99.90
18502;DHT22;68437;52.236;5.710;2023-04-01T08:52:17;10.20;99.90
18502;DHT22;68437;52.236;5.710;2023-04-01T08:55:02;10.10;99.90
18502;DHT22;68437;52.236;5.710;2023-04-01T08:57:40;10.20;99.90
18502;DHT22;68437;52.236;5.710;2023-04-01T09:00:19;10.30;99.90
18502;DHT22;68437;52.236;5.710;2023-04-01T09:09:22;10.50;99.90
18502;DHT22;68437;52.236;5.710;2023-04-01T09:12:07;10.50;99.90
18502;DHT22;68437;52.236;5.710;2023-04-01T09:14:59;10.60;99.90
18502;DHT22;68437;52.236;5.710;2023-04-01T09:17:53;10.70;99.90
18502;DHT22;68437;52.236;5.710;2023-04-01T09:20:35;10.70;99.90
18502;DHT22;68437;52.236;5.710;2023-04-01T09:23:21;10.80;99.90
18502;DHT22;68437;52.236;5.710;2023-04-01T09:25:59;10.80;99.90
18502;DHT22;68437;52.236;5.710;2023-04-01T09:28:39;10.90;99.90
18502;DHT22;68437;52.236;5.710;2023-04-01T09:31:18;10.80;99.90
18502;DHT22;68437;52.236;5.710;2023-04-01T09:34:26;11.00;99.90
18502;DHT22;68437;52.236;5.710;2023-04-01T09:37:06;11.00;99.90
18502;DHT22;68437;52.236;5.710;2023-04-01T09:39:36;11.00;99.90
18502;DHT22;68437;52.236;5.710;2023-04-01T09:42:15;11.00;99.90
18502;DHT22;68437;52.236;5.710;2023-04-01T09:44:53;11.10;99.90
18502;DHT22;68437;52.236;5.710;2023-04-01T09:47:34;11.00;99.90
18502;DHT22;68437;52.236;5.710;2023-04-01T09:50:30;11.10;99.90
18502;DHT22;68437;52.236;5.710;2023-04-01T09:53:07;11.00;99.90
18502;DHT22;68437;52.236;5.710;2023-04-01T09:56:14;11.00;99.90
18502;DHT22;68437;52.236;5.710;2023-04-01T09:59:21;11.00;99.90
18502;DHT22;68437;52.236;5.710;2023-04-01T10:02:33;11.10;99.90
18502;DHT22;68437;52.236;5.710;2023-04-01T10:05:41;11.20;99.90
18502;DHT22;68437;52.236;5.710;2023-04-01T10:08:40;11.20;99.90
18502;DHT22;68437;52.236;5.710;2023-04-01T10:11:27;11.20;99.90
18502;DHT22;68437;52.236;5.710;2023-04-01T10:14:27;11.10;99.90
18502;DHT22;68437;52.236;5.710;2023-04-01T10:17:21;11.20;99.90
18502;DHT22;68437;52.236;5.710;2023-04-01T10:20:08;11.10;99.90
18502;DHT22;68437;52.236;5.710;2023-04-01T10:23:13;11.10;99.90
18502;DHT22;68437;52.236;5.710;2023-04-01T10:26:18;11.00;99.90
18502;DHT22;68437;52.236;5.710;2023-04-01T10:29:10;10.90;99.90
18502;DHT22;68437;52.236;5.710;2023-04-01T10:38:24;10.80;99.90
18502;DHT22;68437;52.236;5.710;2023-04-01T10:41:17;10.70;99.90
18502;DHT22;68437;52.236;5.710;2023-04-01T10:50:23;10.60;99.90
18502;DHT22;68437;52.236;5.710;2023-04-01T10:56:15;10.60;99.90
18502;DHT22;68437;52.236;5.710;2023-04-01T10:59:04;10.60;99.90
18502;DHT22;68437;52.236;5.710;2023-04-01T11:05:24;10.80;99.90
18502;DHT22;68437;52.236;5.710;2023-04-01T11:11:18;10.90;99.90
18502;DHT22;68437;52.236;5.710;2023-04-01T11:17:22;11.10;99.90
18502;DHT22;68437;52.236;5.710;2023-04-01T11:20:18;11.00;99.90
18502;DHT22;68437;52.236;5.710;2023-04-01T11:26:04;11.10;99.90
18502;DHT22;68437;52.236;5.710;2023-04-01T11:28:45;11.00;99.90
18502;DHT22;68437;52.236;5.710;2023-04-01T11:34:26;10.90;99.90
18502;DHT22;68437;52.236;5.710;2023-04-01T11:37:06;10.90;99.90
18502;DHT22;68437;52.236;5.710;2023-04-01T11:39:46;10.90;99.90
18502;DHT22;68437;52.236;5.710;2023-04-01T11:42:22;10.80;99.90
18502;DHT22;68437;52.236;5.710;2023-04-01T11:44:58;10.90;99.90
18502;DHT22;68437;52.236;5.710;2023-04-01T11:50:36;10.90;99.90
18502;DHT22;68437;52.236;5.710;2023-04-01T11:53:13;10.80;99.90
18502;DHT22;68437;52.236;5.710;2023-04-01T11:55:54;10.80;99.90
18502;DHT22;68437;52.236;5.710;2023-04-01T11:58:47;10.80;99.90
18502;DHT22;68437;52.236;5.710;2023-04-01T12:01:26;10.80;99.90
18502;DHT22;68437;52.236;5.710;2023-04-01T12:07:01;10.80;99.90
18502;DHT22;68437;52.236;5.710;2023-04-01T12:09:35;10.80;99.90
18502;DHT22;68437;52.236;5.710;2023-04-01T12:12:12;10.80;99.90
18502;DHT22;68437;52.236;5.710;2023-04-01T12:14:46;10.80;99.90
18502;DHT22;68437;52.236;5.710;2023-04-01T12:17:28;10.90;99.90
18502;DHT22;68437;52.236;5.710;2023-04-01T12:19:59;10.80;99.90
18502;DHT22;68437;52.236;5.710;2023-04-01T12:22:42;10.80;99.90
18502;DHT22;68437;52.236;5.710;2023-04-01T12:25:29;10.90;99.90
18502;DHT22;68437;52.236;5.710;2023-04-01T12:28:10;10.90;99.90
18502;DHT22;68437;52.236;5.710;2023-04-01T12:30:59;11.00;99.90
18502;DHT22;68437;52.236;5.710;2023-04-01T12:34:21;11.00;99.90
18502;DHT22;68437;52.236;5.710;2023-04-01T12:37:00;11.00;99.90
18502;DHT22;68437;52.236;5.710;2023-04-01T12:39:46;11.00;99.90
18502;DHT22;68437;52.236;5.710;2023-04-01T12:42:22;11.10;99.90
18502;DHT22;68437;52.236;5.710;2023-04-01T12:45:08;11.10;99.90
18502;DHT22;68437;52.236;5.710;2023-04-01T12:48:06;11.10;99.90
18502;DHT22;68437;52.236;5.710;2023-04-01T12:51:04;11.00;99.90
18502;DHT22;68437;52.236;5.710;2023-04-01T12:53:51;11.00;99.90
18502;DHT22;68437;52.236;5.710;2023-04-01T12:56:31;11.00;99.90
18502;DHT22;68437;52.236;5.710;2023-04-01T12:59:16;11.00;99.90
18502;DHT22;68437;52.236;5.710;2023-04-01T13:01:57;10.90;99.90
18502;DHT22;68437;52.236;5.710;2023-04-01T13:08:06;11.00;99.90
18502;DHT22;68437;52.236;5.710;2023-04-01T13:10:45;10.90;99.90
18502;DHT22;68437;52.236;5.710;2023-04-01T13:13:42;10.90;99.90
18502;DHT22;68437;52.236;5.710;2023-04-01T13:16:14;10.90;99.90
18502;DHT22;68437;52.236;5.710;2023-04-01T13:18:55;10.90;99.90
18502;DHT22;68437;52.236;5.710;2023-04-01T13:24:28;10.90;99.90
18502;DHT22;68437;52.236;5.710;2023-04-01T13:27:00;10.90;99.90
18502;DHT22;68437;52.236;5.710;2023-04-01T13:29:32;10.90;99.90
18502;DHT22;68437;52.236;5.710;2023-04-01T13:32:10;11.00;99.90
18502;DHT22;68437;52.236;5.710;2023-04-01T13:34:50;11.00;99.90
18502;DHT22;68437;52.236;5.710;2023-04-01T13:37:28;11.00;99.90
18502;DHT22;68437;52.236;5.710;2023-04-01T13:40:15;11.10;99.90
18502;DHT22;68437;52.236;5.710;2023-04-01T13:42:51;11.10;99.90
18502;DHT22;68437;52.236;5.710;2023-04-01T13:45:23;11.10;99.90
18502;DHT22;68437;52.236;5.710;2023-04-01T13:50:55;10.90;99.90
18502;DHT22;68437;52.236;5.710;2023-04-01T13:56:33;10.60;99.90
18502;DHT22;68437;52.236;5.710;2023-04-01T13:59:34;10.50;99.90
18502;DHT22;68437;52.236;5.710;2023-04-01T14:02:20;10.50;99.90
18502;DHT22;68437;52.236;5.710;2023-04-01T14:05:04;10.50;99.90
18502;DHT22;68437;52.236;5.710;2023-04-01T14:07:50;10.50;99.90
18502;DHT22;68437;52.236;5.710;2023-04-01T14:10:31;10.50;99.90
18502;DHT22;68437;52.236;5.710;2023-04-01T14:13:06;10.50;99.90
18502;DHT22;68437;52.236;5.710;2023-04-01T14:15:52;10.50;99.90
18502;DHT22;68437;52.236;5.710;2023-04-01T14:18:39;10.50;99.90
18502;DHT22;68437;52.236;5.710;2023-04-01T14:21:17;10.50;99.90
18502;DHT22;68437;52.236;5.710;2023-04-01T14:23:58;10.50;99.90
18502;DHT22;68437;52.236;5.710;2023-04-01T14:29:51;10.60;99.90
18502;DHT22;68437;52.236;5.710;2023-04-01T14:32:30;10.60;99.90
18502;DHT22;68437;52.236;5.710;2023-04-01T14:35:14;10.50;99.90
18502;DHT22;68437;52.236;5.710;2023-04-01T14:37:58;10.50;99.90
18502;DHT22;68437;52.236;5.710;2023-04-01T14:40:39;10.60;99.90
18502;DHT22;68437;52.236;5.710;2023-04-01T14:43:29;10.60;99.90
18502;DHT22;68437;52.236;5.710;2023-04-01T14:46:13;10.60;99.90
18502;DHT22;68437;52.236;5.710;2023-04-01T14:48:51;10.50;99.90
18502;DHT22;68437;52.236;5.710;2023-04-01T14:51:23;10.60;99.90
18502;DHT22;68437;52.236;5.710;2023-04-01T14:54:02;10.60;99.90
18502;DHT22;68437;52.236;5.710;2023-04-01T14:56:36;10.60;99.90
18502;DHT22;68437;52.236;5.710;2023-04-01T14:59:11;10.60;99.90
18502;DHT22;68437;52.236;5.710;2023-04-01T15:01:47;10.60;99.90
18502;DHT22;68437;52.236;5.710;2023-04-01T15:04:53;10.50;99.90
18502;DHT22;68437;52.236;5.710;2023-04-01T15:07:50;10.40;99.90
18502;DHT22;68437;52.236;5.710;2023-04-01T15:10:41;10.30;99.90
18502;DHT22;68437;52.236;5.710;2023-04-01T15:13:13;10.30;99.90
18502;DHT22;68437;52.236;5.710;2023-04-01T15:15:57;10.30;99.90
18502;DHT22;68437;52.236;5.710;2023-04-01T15:18:31;10.30;99.90
18502;DHT22;68437;52.236;5.710;2023-04-01T15:21:13;10.20;99.90
18502;DHT22;68437;52.236;5.710;2023-04-01T15:23:53;10.20;99.90
18502;DHT22;68437;52.236;5.710;2023-04-01T15:26:43;10.30;99.90
18502;DHT22;68437;52.236;5.710;2023-04-01T15:29:43;10.30;99.90
18502;DHT22;68437;52.236;5.710;2023-04-01T15:32:18;10.20;99.90
18502;DHT22;68437;52.236;5.710;2023-04-01T15:34:52;10.20;99.90
18502;DHT22;68437;52.236;5.710;2023-04-01T15:37:35;10.20;99.90
18502;DHT22;68437;52.236;5.710;2023-04-01T15:40:17;10.20;99.90
18502;DHT22;68437;52.236;5.710;2023-04-01T15:43:06;10.20;99.90
18502;DHT22;68437;52.236;5.710;2023-04-01T15:45:44;10.20;99.90
18502;DHT22;68437;52.236;5.710;2023-04-01T15:48:34;10.20;99.90
18502;DHT22;68437;52.236;5.710;2023-04-01T15:51:20;10.10;99.90
18502;DHT22;68437;52.236;5.710;2023-04-01T15:57:00;9.90;99.90
18502;DHT22;68437;52.236;5.710;2023-04-01T15:59:51;9.90;99.90
18502;DHT22;68437;52.236;5.710;2023-04-01T16:02:24;9.90;99.90
18502;DHT22;68437;52.236;5.710;2023-04-01T16:04:59;9.90;99.90
18502;DHT22;68437;52.236;5.710;2023-04-01T16:07:46;9.80;99.90
18502;DHT22;68437;52.236;5.710;2023-04-01T16:10:31;9.70;99.90
18502;DHT22;68437;52.236;5.710;2023-04-01T16:13:14;9.70;99.90
18502;DHT22;68437;52.236;5.710;2023-04-01T16:15:53;9.70;99.90
18502;DHT22;68437;52.236;5.710;2023-04-01T16:18:47;9.70;99.90
18502;DHT22;68437;52.236;5.710;2023-04-01T16:21:28;9.70;99.90
18502;DHT22;68437;52.236;5.710;2023-04-01T16:24:10;9.70;99.90
18502;DHT22;68437;52.236;5.710;2023-04-01T16:26:46;9.60;99.90
18502;DHT22;68437;52.236;5.710;2023-04-01T16:29:22;9.50;99.90
18502;DHT22;68437;52.236;5.710;2023-04-01T16:31:55;9.50;99.90
18502;DHT22;68437;52.236;5.710;2023-04-01T16:34:29;9.50;99.90
18502;DHT22;68437;52.236;5.710;2023-04-01T16:37:03;9.40;99.90
18502;DHT22;68437;52.236;5.710;2023-04-01T16:39:41;9.30;99.90
18502;DHT22;68437;52.236;5.710;2023-04-01T16:42:34;9.30;99.90
18502;DHT22;68437;52.236;5.710;2023-04-01T16:45:19;9.30;99.90
18502;DHT22;68437;52.236;5.710;2023-04-01T16:47:49;9.20;99.90
18502;DHT22;68437;52.236;5.710;2023-04-01T16:50:22;9.20;99.90
18502;DHT22;68437;52.236;5.710;2023-04-01T16:53:00;9.20;99.90
18502;DHT22;68437;52.236;5.710;2023-04-01T16:55:44;9.20;99.90
18502;DHT22;68437;52.236;5.710;2023-04-01T16:58:20;9.20;99.90
18502;DHT22;68437;52.236;5.710;2023-04-01T17:00:50;9.20;99.90
18502;DHT22;68437;52.236;5.710;2023-04-01T17:03:22;9.20;99.90
18502;DHT22;68437;52.236;5.710;2023-04-01T17:06:02;9.20;99.90
18502;DHT22;68437;52.236;5.710;2023-04-01T17:08:39;9.20;99.90
18502;DHT22;68437;52.236;5.710;2023-04-01T17:11:13;9.20;99.90
18502;DHT22;68437;52.236;5.710;2023-04-01T17:13:49;9.10;99.90
18502;DHT22;68437;52.236;5.710;2023-04-01T17:16:32;9.10;99.90
18502;DHT22;68437;52.236;5.710;2023-04-01T17:19:10;9.10;99.90
18502;DHT22;68437;52.236;5.710;2023-04-01T17:21:49;9.00;99.90
18502;DHT22;68437;52.236;5.710;2023-04-01T17:24:34;8.90;99.90
18502;DHT22;68437;52.236;5.710;2023-04-01T17:27:17;8.90;99.90
18502;DHT22;68437;52.236;5.710;2023-04-01T17:30:03;8.90;99.90
18502;DHT22;68437;52.236;5.710;2023-04-01T17:32:41;8.90;99.90
18502;DHT22;68437;52.236;5.710;2023-04-01T17:35:13;8.90;99.90
18502;DHT22;68437;52.236;5.710;2023-04-01T17:37:53;8.90;99.90
18502;DHT22;68437;52.236;5.710;2023-04-01T17:40:34;8.90;99.90
18502;DHT22;68437;52.236;5.710;2023-04-01T17:43:09;8.80;99.90
18502;DHT22;68437;52.236;5.710;2023-04-01T17:45:43;8.80;99.90
18502;DHT22;68437;52.236;5.710;2023-04-01T17:48:18;8.80;99.90